Accueil
METAR-TAF:

METAR-TAF

Aéroports :

Northolt, Angleterre

Station RAF de Northolt

latitude: 51-33N, longitude: 000-25W, altitude: 38 m

Observation

Le bulletin a été fait il y a 17 minutes, à 09:50 UTC
Vent 5 kt de nord
Température 10°C
Humidité 62%
Pression 1017 hPa
Visibilité 10 km ou plus
Nuages épars à une hauteur de 2600 ft
Nuages fragmentés à une hauteur de 5000 ft

METAR: EGWU 280950Z 36005KT 9999 SCT026 BKN050 10/03 Q1017 NOSIG

Heure: 11:07 (10:07 UTC)

Prévision

Le bulletin a été fait il y a 2 heures et 37 minutes, à 07:30 UTC
Prévision valable du 28 à 09 UTC au 29 à 03 UTC
Vent 6 kt de nord
Visibilité 10 km ou plus
Quelques nuages à une hauteur de 2500 ft
Nuages fragmentés à une hauteur de 4500 ft

TAF: EGWU 280730Z 2809/2903 35006KT 9999 FEW025 BKN045

Observations et prévisions météorologiques de plus de 4000 aéroports (messages METAR et TAF).

Les stations disponibles sont représentées par des disques jaunes et rouges sur la carte.

Passer la souris dessus pour voir le nom de la station.

Cliquer dessus pour voir les observations et prévisions météorologiques.

Pour changer de carte: cliquez sur les boutons verts avec une croix noire pour zoomer, sur le bouton vert avec un tiret pour effectuer un zoom arrière, ou sur les flèches vertes pour les cartes adjacentes.


METAR-TAF: